Time;durP1;ratioP1;P1;durP2;ratioP2;P2;SDS_P1;SDS_P2;PMS_P1;PMS_P2;Temp;Humidity;BMP_temperature;BMP_pressure;BME280_temperature;BME280_humidity;BME280_pressure;Samples;Min_cycle;Max_cycle;Signal;HPM_P1;HPM_P2
2023/01/26 00:00:30;;;;;;;29.80;11.98;;;8.20;50.40;;;;;;6320183;28;20043;-68
2023/01/26 00:03:31;;;;;;;38.35;13.10;;;8.30;50.60;;;;;;6302192;28;20032;-69
2023/01/26 00:06:32;;;;;;;31.73;11.85;;;8.30;50.60;;;;;;6296078;28;20059;-69
2023/01/26 00:09:33;;;;;;;41.15;16.83;;;8.30;50.70;;;;;;6294378;28;20028;-69
2023/01/26 00:12:34;;;;;;;27.52;11.75;;;8.30;50.70;;;;;;6295744;28;20040;-68
2023/01/26 00:15:35;;;;;;;30.45;11.93;;;8.30;50.70;;;;;;6296437;28;20054;-69
2023/01/26 00:18:37;;;;;;;32.80;13.57;;;8.30;50.70;;;;;;6295040;28;20045;-69
2023/01/26 00:21:38;;;;;;;31.65;13.05;;;8.30;50.70;;;;;;6296025;28;20107;-70
2023/01/26 00:24:39;;;;;;;33.30;12.90;;;8.20;50.70;;;;;;6296135;28;20035;-67
2023/01/26 00:27:40;;;;;;;28.63;13.10;;;8.20;50.80;;;;;;6296214;28;20017;-69
2023/01/26 00:30:41;;;;;;;28.88;11.85;;;8.20;50.80;;;;;;6278136;28;20103;-68
2023/01/26 00:33:42;;;;;;;29.35;10.85;;;8.10;50.90;;;;;;6295970;28;20035;-69
2023/01/26 00:36:44;;;;;;;48.22;13.40;;;8.10;51.00;;;;;;6294397;28;20024;-69
2023/01/26 00:39:45;;;;;;;29.67;12.35;;;8.00;51.00;;;;;;6294331;28;20036;-69
2023/01/26 00:42:45;;;;;;;36.28;12.77;;;8.00;51.20;;;;;;6294669;28;20043;-70
2023/01/26 00:45:47;;;;;;;35.60;14.15;;;8.00;51.20;;;;;;6296592;28;20024;-68
2023/01/26 00:48:48;;;;;;;38.10;12.88;;;8.00;51.20;;;;;;6303919;28;20033;-69
2023/01/26 00:51:48;;;;;;;37.03;14.43;;;8.00;51.20;;;;;;6324583;28;20500;-68
2023/01/26 00:54:49;;;;;;;29.77;12.02;;;8.00;51.20;;;;;;6325617;28;20387;-70
2023/01/26 00:57:50;;;;;;;31.40;13.23;;;8.00;51.20;;;;;;6323324;28;20399;-69
2023/01/26 01:00:52;;;;;;;41.90;13.20;;;8.10;51.80;;;;;;6324938;28;20051;-68
2023/01/26 01:03:53;;;;;;;32.67;12.50;;;8.10;51.10;;;;;;6320858;28;20017;-68
2023/01/26 01:06:54;;;;;;;38.28;13.60;;;8.10;51.10;;;;;;6298200;28;20051;-68
2023/01/26 01:09:55;;;;;;;28.92;12.48;;;8.10;51.10;;;;;;6299079;28;20052;-70
2023/01/26 01:12:56;;;;;;;36.65;12.45;;;8.20;51.10;;;;;;6297949;28;20025;-67
2023/01/26 01:15:57;;;;;;;34.47;13.05;;;8.10;51.00;;;;;;6297990;28;20063;-68
2023/01/26 01:18:59;;;;;;;30.33;12.75;;;8.10;51.00;;;;;;6297572;28;20036;-69
2023/01/26 01:22:00;;;;;;;36.90;13.48;;;8.00;50.90;;;;;;6297692;28;20043;-69
2023/01/26 01:25:02;;;;;;;34.95;13.50;;;8.00;50.90;;;;;;6297896;28;20029;-69
2023/01/26 01:28:03;;;;;;;32.33;11.98;;;8.10;51.00;;;;;;6297390;28;20036;-68
2023/01/26 01:31:10;;;;;;;41.13;14.73;;;8.10;51.00;;;;;;6298900;28;20396;-68
2023/01/26 01:34:10;;;;;;;31.70;12.82;;;8.10;51.00;;;;;;6298017;28;20111;-69
2023/01/26 01:37:11;;;;;;;35.75;12.32;;;8.10;50.90;;;;;;6298450;28;20190;-67
2023/01/26 01:40:12;;;;;;;37.70;12.60;;;8.10;50.80;;;;;;6298388;28;20067;-66
2023/01/26 01:43:13;;;;;;;34.03;13.02;;;8.10;50.90;;;;;;6298498;28;20028;-69
2023/01/26 01:46:25;;;;;;;31.75;14.38;;;8.10;50.90;;;;;;6298945;28;20040;-68
2023/01/26 01:49:39;;;;;;;36.08;12.02;;;8.10;50.90;;;;;;6297149;28;20024;-67
2023/01/26 01:52:40;;;;;;;27.98;12.40;;;8.10;50.80;;;;;;6298708;28;20119;-68
2023/01/26 01:55:42;;;;;;;37.65;14.13;;;8.10;50.80;;;;;;6298413;28;20030;-69
2023/01/26 01:58:44;;;;;;;32.15;13.27;;;8.10;50.70;;;;;;6297364;28;20040;-69
2023/01/26 02:01:45;;;;;;;34.28;12.93;;;8.10;50.70;;;;;;6280644;28;20031;-68
2023/01/26 02:04:46;;;;;;;31.50;13.30;;;8.10;50.70;;;;;;6299920;28;20115;-69
2023/01/26 02:07:51;;;;;;;41.10;14.02;;;8.10;50.70;;;;;;6297800;28;20052;-68
2023/01/26 02:10:55;;;;;;;39.78;14.48;;;8.10;50.70;;;;;;6297028;28;20067;-68
2023/01/26 02:13:58;;;;;;;31.88;12.00;;;8.10;50.60;;;;;;6296931;28;20059;-69
2023/01/26 02:16:59;;;;;;;31.70;12.02;;;8.10;50.70;;;;;;6296857;28;20055;-67
2023/01/26 02:20:08;;;;;;;31.70;12.18;;;8.10;50.90;;;;;;6296404;28;20036;-71
2023/01/26 02:23:28;;;;;;;34.30;13.23;;;8.00;51.00;;;;;;6296353;28;20036;-69
2023/01/26 02:26:33;;;;;;;31.05;13.30;;;8.00;51.20;;;;;;6296542;28;20063;-68
2023/01/26 02:29:35;;;;;;;33.75;13.75;;;8.00;51.20;;;;;;6296125;28;20029;-69
2023/01/26 02:32:36;;;;;;;33.90;12.63;;;8.00;51.20;;;;;;6296321;28;20032;-68
2023/01/26 02:35:36;;;;;;;27.80;10.95;;;8.10;51.10;;;;;;6297561;28;20033;-68
2023/01/26 02:38:56;;;;;;;28.95;12.38;;;8.10;51.00;;;;;;6295748;28;20543;-68
2023/01/26 02:45:16;;;;;;;28.52;10.93;;;8.10;51.00;;;;;;6322310;28;20524;-68
2023/01/26 02:51:39;;;;;;;35.53;12.48;;;8.10;51.00;;;;;;6320784;28;20434;-70
2023/01/26 02:58:02;;;;;;;26.33;10.55;;;8.00;51.00;;;;;;6320126;28;20074;-69
2023/01/26 03:01:05;;;;;;;28.30;11.38;;;8.00;50.90;;;;;;6320631;28;20169;-68
2023/01/26 03:04:06;;;;;;;26.33;11.30;;;8.00;50.80;;;;;;6314902;28;20476;-69
2023/01/26 03:07:07;;;;;;;28.50;11.23;;;8.10;50.80;;;;;;6296935;28;20032;-68
2023/01/26 03:10:09;;;;;;;30.08;11.73;;;8.00;50.80;;;;;;6278749;28;20337;-69
2023/01/26 03:13:10;;;;;;;33.75;12.43;;;8.10;50.80;;;;;;6295674;28;20035;-66
2023/01/26 03:16:11;;;;;;;28.98;12.50;;;8.10;50.90;;;;;;6295605;28;20029;-70
2023/01/26 03:29:13;;;;;;;29.80;11.70;;;8.10;51.10;;;;;;6306084;28;20028;-67
2023/01/26 03:32:16;;;;;;;26.15;11.30;;;8.10;51.00;;;;;;6301953;28;20177;-68
2023/01/26 03:35:21;;;;;;;30.40;11.90;;;8.20;51.10;;;;;;6298153;28;20025;-68
2023/01/26 03:38:22;;;;;;;30.08;11.07;;;8.10;51.10;;;;;;6287653;28;20032;-68
2023/01/26 03:58:10;;;;;;;28.55;12.07;;;8.10;51.80;;;;;;6319776;28;20028;-70
2023/01/26 04:01:18;;;;;;;36.35;12.00;;;8.00;51.90;;;;;;6320087;28;20545;-68
2023/01/26 04:11:00;;;;;;;27.35;11.18;;;7.90;52.10;;;;;;6294900;28;20028;-69
2023/01/26 04:24:08;;;;;;;29.67;10.40;;;7.80;52.20;;;;;;6298100;28;20396;-66
2023/01/26 04:27:10;;;;;;;25.27;11.07;;;7.80;52.00;;;;;;6299298;28;20035;-67
2023/01/26 04:30:16;;;;;;;24.27;10.82;;;7.70;51.80;;;;;;6282768;28;20028;-68
2023/01/26 04:33:17;;;;;;;24.27;11.23;;;7.70;51.70;;;;;;6300333;28;20469;-69
2023/01/26 04:36:18;;;;;;;26.92;10.57;;;7.70;51.70;;;;;;6322854;28;20028;-68
2023/01/26 04:39:21;;;;;;;23.80;9.60;;;7.70;51.60;;;;;;6325835;28;20036;-69
2023/01/26 04:42:27;;;;;;;25.85;10.52;;;7.70;51.60;;;;;;6326371;28;20043;-69
2023/01/26 04:45:29;;;;;;;26.90;10.23;;;7.70;51.50;;;;;;6324154;28;20028;-67
2023/01/26 04:48:31;;;;;;;26.88;8.88;;;7.70;51.50;;;;;;6323605;28;20083;-69
2023/01/26 04:51:32;;;;;;;30.10;11.27;;;7.60;51.40;;;;;;6323997;28;20063;-67
2023/01/26 04:54:33;;;;;;;23.38;9.50;;;7.60;51.50;;;;;;6323675;28;20062;-69
2023/01/26 04:57:33;;;;;;;23.90;9.35;;;7.60;51.60;;;;;;6324579;28;20074;-67
2023/01/26 05:00:37;;;;;;;29.75;11.50;;;7.60;51.60;;;;;;6323886;28;20032;-68
2023/01/26 05:03:38;;;;;;;28.20;10.20;;;7.50;51.60;;;;;;6321740;28;20039;-67
2023/01/26 05:06:40;;;;;;;25.38;10.20;;;7.60;51.70;;;;;;6299474;28;20021;-67
2023/01/26 05:09:42;;;;;;;30.65;11.68;;;7.60;51.70;;;;;;6298023;28;20075;-67
2023/01/26 05:13:03;;;;;;;23.88;10.00;;;7.60;51.80;;;;;;6298071;28;20510;-69
2023/01/26 05:16:16;;;;;;;26.05;10.60;;;7.60;51.80;;;;;;6298060;28;20093;-69
2023/01/26 05:19:39;;;;;;;36.28;11.50;;;7.60;51.80;;;;;;6258108;28;20042;-68
2023/01/26 05:22:46;;;;;;;28.33;10.20;;;7.50;51.80;;;;;;6271706;28;20566;-69
2023/01/26 05:26:07;;;;;;;24.45;9.30;;;7.60;52.00;;;;;;6257653;28;20083;-69
2023/01/26 05:29:18;;;;;;;28.77;11.20;;;7.60;52.00;;;;;;6254696;28;20036;-69
2023/01/26 05:32:20;;;;;;;34.92;12.68;;;7.60;51.90;;;;;;6276227;28;20120;-69
2023/01/26 05:35:23;;;;;;;24.42;9.95;;;7.60;51.80;;;;;;6278199;28;20523;-71
2023/01/26 05:38:25;;;;;;;23.52;9.57;;;7.60;51.80;;;;;;6278851;28;20064;-69
2023/01/26 05:41:26;;;;;;;27.75;10.93;;;7.60;51.80;;;;;;6279203;28;20056;-69
2023/01/26 05:44:45;;;;;;;24.98;10.07;;;7.70;51.90;;;;;;6281854;28;20124;-68
2023/01/26 05:47:48;;;;;;;23.58;10.00;;;7.60;52.00;;;;;;6278773;28;20067;-68
2023/01/26 05:50:49;;;;;;;28.15;11.02;;;7.70;52.10;;;;;;6295658;28;20353;-69
2023/01/26 05:53:53;;;;;;;33.45;11.70;;;7.70;52.00;;;;;;6263047;28;20028;-70
2023/01/26 05:56:56;;;;;;;22.17;10.55;;;7.60;51.90;;;;;;6288669;28;20032;-68
2023/01/26 05:59:59;;;;;;;25.75;10.82;;;7.60;51.90;;;;;;6296818;28;20025;-71
2023/01/26 06:03:00;;;;;;;28.45;11.13;;;7.60;51.90;;;;;;6297131;28;20028;-70
2023/01/26 06:06:02;;;;;;;31.15;10.55;;;7.60;52.00;;;;;;6316106;28;20025;-69
2023/01/26 06:09:13;;;;;;;27.10;10.13;;;7.60;52.00;;;;;;6314180;28;20028;-67
2023/01/26 06:12:38;;;;;;;24.80;11.45;;;7.60;52.10;;;;;;6306098;28;20033;-68
2023/01/26 06:16:02;;;;;;;29.25;10.88;;;7.60;52.10;;;;;;6297468;28;20036;-69
2023/01/26 06:19:05;;;;;;;31.20;12.55;;;7.60;52.20;;;;;;6295966;28;20124;-69
2023/01/26 06:22:07;;;;;;;40.00;12.10;;;7.60;52.20;;;;;;6296487;28;20029;-70
2023/01/26 06:25:10;;;;;;;29.50;11.77;;;7.60;52.20;;;;;;6279647;28;20468;-69
2023/01/26 06:28:11;;;;;;;33.42;11.57;;;7.60;52.00;;;;;;6314890;28;20070;-69
2023/01/26 06:31:12;;;;;;;23.73;10.57;;;7.60;52.00;;;;;;6320899;28;20047;-70
2023/01/26 06:34:14;;;;;;;29.90;10.63;;;7.60;52.00;;;;;;6321074;28;20024;-69
2023/01/26 06:37:16;;;;;;;28.27;11.00;;;7.70;52.00;;;;;;6321049;28;20036;-68
2023/01/26 06:40:18;;;;;;;31.02;12.30;;;7.60;51.90;;;;;;6320768;28;20024;-70
2023/01/26 06:43:19;;;;;;;34.13;11.70;;;7.70;52.00;;;;;;6320696;28;20043;-69
2023/01/26 06:46:20;;;;;;;25.88;11.60;;;7.70;51.90;;;;;;6320438;28;20115;-68
2023/01/26 06:49:23;;;;;;;28.67;10.65;;;7.70;51.90;;;;;;6320349;28;20024;-70
2023/01/26 06:52:27;;;;;;;30.95;11.52;;;7.60;51.80;;;;;;6320598;28;20034;-68
2023/01/26 06:55:37;;;;;;;29.80;11.40;;;7.60;51.80;;;;;;6320133;28;20032;-69
2023/01/26 06:58:56;;;;;;;28.30;11.38;;;7.60;51.80;;;;;;6321584;28;20039;-68
2023/01/26 07:02:24;;;;;;;29.38;10.80;;;7.60;52.00;;;;;;6320635;28;20031;-70
2023/01/26 07:05:24;;;;;;;25.42;9.88;;;7.60;52.00;;;;;;6304716;28;20490;-68
2023/01/26 07:08:25;;;;;;;25.00;10.48;;;7.70;52.70;;;;;;6296227;28;20043;-67
2023/01/26 07:11:29;;;;;;;31.02;10.45;;;7.70;52.10;;;;;;6296458;28;20025;-68
2023/01/26 07:14:31;;;;;;;26.95;10.98;;;7.70;52.00;;;;;;6278639;28;20041;-67
2023/01/26 07:17:32;;;;;;;23.38;10.85;;;7.60;52.00;;;;;;6296304;28;20226;-68
2023/01/26 07:20:33;;;;;;;28.70;11.30;;;7.60;52.00;;;;;;6278379;28;20041;-69
2023/01/26 07:23:33;;;;;;;33.22;11.57;;;7.60;52.00;;;;;;6307100;28;20038;-71
2023/01/26 07:26:34;;;;;;;24.85;10.07;;;7.60;52.00;;;;;;6321348;28;20492;-71
2023/01/26 07:29:35;;;;;;;27.75;11.02;;;7.60;52.20;;;;;;6320765;28;20028;-69
2023/01/26 07:32:36;;;;;;;38.40;10.45;;;7.60;52.00;;;;;;6321036;28;20047;-70
2023/01/26 07:35:37;;;;;;;28.58;10.57;;;7.70;52.00;;;;;;6320994;28;20066;-68
2023/01/26 07:38:38;;;;;;;27.95;10.55;;;7.70;51.90;;;;;;6319363;28;20085;-70
2023/01/26 07:41:39;;;;;;;24.52;10.13;;;7.70;51.80;;;;;;6320865;28;20028;-69
2023/01/26 07:44:58;;;;;;;27.42;10.55;;;7.70;51.70;;;;;;6319840;28;20028;-69
2023/01/26 07:47:59;;;;;;;27.95;8.88;;;7.70;51.60;;;;;;6320267;28;20020;-69
2023/01/26 07:51:02;;;;;;;24.75;9.93;;;7.70;51.50;;;;;;6319637;28;20028;-68
2023/01/26 07:54:03;;;;;;;27.45;9.40;;;7.70;51.40;;;;;;6319414;28;20036;-68
2023/01/26 07:57:05;;;;;;;26.20;11.55;;;7.60;51.40;;;;;;6321615;28;20035;-68
2023/01/26 08:00:07;;;;;;;19.42;8.45;;;7.60;51.50;;;;;;6324348;28;20039;-70
2023/01/26 08:03:13;;;;;;;23.73;9.38;;;7.60;51.50;;;;;;6326143;28;20036;-70
2023/01/26 08:06:15;;;;;;;27.08;9.45;;;7.60;51.50;;;;;;6301784;28;20180;-68
2023/01/26 08:09:16;;;;;;;29.83;10.77;;;7.60;52.00;;;;;;6299998;28;20128;-68
2023/01/26 08:12:17;;;;;;;25.67;10.18;;;7.60;51.40;;;;;;6298946;28;20032;-69
2023/01/26 08:15:18;;;;;;;26.83;10.48;;;7.60;51.30;;;;;;6299180;28;20037;-70
2023/01/26 08:18:19;;;;;;;21.63;8.98;;;7.70;51.30;;;;;;6300234;28;20024;-69
2023/01/26 08:21:20;;;;;;;22.27;10.23;;;7.70;51.20;;;;;;6322286;28;20074;-68
2023/01/26 08:24:21;;;;;;;22.25;9.18;;;7.70;51.00;;;;;;6323413;28;20483;-70
2023/01/26 08:27:22;;;;;;;21.65;9.57;;;7.80;51.00;;;;;;6323585;28;20028;-70
2023/01/26 08:30:23;;;;;;;20.35;9.20;;;7.80;50.80;;;;;;6306450;28;20190;-70
2023/01/26 08:33:24;;;;;;;30.35;10.10;;;7.80;50.70;;;;;;6323764;28;20028;-70
2023/01/26 08:36:24;;;;;;;28.15;10.75;;;7.80;50.70;;;;;;6323612;28;20090;-70
2023/01/26 08:39:25;;;;;;;23.77;9.52;;;7.80;50.70;;;;;;6323312;28;20043;-69
2023/01/26 08:42:27;;;;;;;36.17;11.93;;;7.90;50.80;;;;;;6323469;28;20036;-69
2023/01/26 08:45:28;;;;;;;25.30;9.73;;;7.90;50.70;;;;;;6325005;28;20130;-70
2023/01/26 08:48:30;;;;;;;26.17;10.60;;;7.90;50.60;;;;;;6323638;28;20383;-69
2023/01/26 08:51:31;;;;;;;20.63;8.90;;;7.90;50.50;;;;;;6333682;28;20101;-70
2023/01/26 08:54:32;;;;;;;23.77;8.73;;;7.90;50.40;;;;;;6333177;28;20530;-70
2023/01/26 08:57:32;;;;;;;24.80;10.57;;;7.90;50.50;;;;;;6323616;28;20142;-69
2023/01/26 09:00:33;;;;;;;21.58;8.77;;;8.00;50.30;;;;;;6324815;28;20031;-69
2023/01/26 09:03:35;;;;;;;23.20;9.98;;;8.00;50.10;;;;;;6324587;28;20024;-71
2023/01/26 09:06:35;;;;;;;27.20;9.75;;;8.00;50.70;;;;;;6299423;28;20062;-70
2023/01/26 09:09:36;;;;;;;29.85;9.73;;;8.00;50.20;;;;;;6298690;28;20402;-68
2023/01/26 09:12:37;;;;;;;25.40;9.93;;;8.00;50.10;;;;;;6297923;28;20035;-70
2023/01/26 09:15:38;;;;;;;22.70;8.73;;;8.10;49.90;;;;;;6305895;28;20016;-72
2023/01/26 09:18:39;;;;;;;24.10;8.77;;;8.10;49.80;;;;;;6322461;28;20024;-69
2023/01/26 09:21:40;;;;;;;21.50;8.68;;;8.10;49.70;;;;;;6324190;28;20479;-70
2023/01/26 09:24:41;;;;;;;35.80;9.13;;;8.10;49.70;;;;;;6323958;28;20020;-70
2023/01/26 09:27:43;;;;;;;24.25;9.80;;;8.10;49.70;;;;;;6322272;28;20063;-69
2023/01/26 09:30:44;;;;;;;29.65;9.57;;;8.10;49.60;;;;;;6322346;28;20041;-68
2023/01/26 09:33:46;;;;;;;27.77;10.25;;;8.10;49.60;;;;;;6322384;28;20027;-70
2023/01/26 09:36:47;;;;;;;33.42;11.82;;;8.10;49.60;;;;;;6321996;28;20112;-70
2023/01/26 09:39:48;;;;;;;26.02;9.93;;;8.10;49.60;;;;;;6321829;28;20036;-68
2023/01/26 09:43:35;;;;;;;18.48;8.18;;;8.10;49.60;;;;;;6323404;28;20039;-72
2023/01/26 09:46:47;;;;;;;28.88;10.05;;;8.20;49.50;;;;;;6323799;28;20111;-71
2023/01/26 09:50:18;;;;;;;18.70;8.18;;;8.20;49.30;;;;;;6321987;28;20090;-72
2023/01/26 09:53:36;;;;;;;23.83;9.27;;;8.10;49.10;;;;;;6323529;28;20039;-70
2023/01/26 09:56:36;;;;;;;25.10;8.98;;;8.10;49.20;;;;;;6323295;28;20104;-70
2023/01/26 10:00:00;;;;;;;28.58;12.38;;;8.10;49.30;;;;;;6321658;28;20113;-68
2023/01/26 10:03:17;;;;;;;22.88;8.57;;;8.10;49.10;;;;;;6323291;28;20032;-69
2023/01/26 10:06:30;;;;;;;22.88;10.23;;;8.10;49.00;;;;;;6280799;28;20473;-70
2023/01/26 10:09:44;;;;;;;25.73;9.90;;;8.10;48.90;;;;;;6297722;28;20024;-68
2023/01/26 10:12:48;;;;;;;37.33;11.13;;;8.10;48.90;;;;;;6311868;28;20027;-71
2023/01/26 10:16:04;;;;;;;26.80;10.57;;;8.10;48.60;;;;;;6322869;28;20032;-69
2023/01/26 10:19:12;;;;;;;31.40;10.45;;;8.10;48.60;;;;;;6321404;28;20434;-71
2023/01/26 10:22:21;;;;;;;26.65;10.25;;;8.00;48.70;;;;;;6320636;28;20039;-69
2023/01/26 10:25:35;;;;;;;35.70;13.00;;;8.10;48.60;;;;;;6321404;28;20104;-71
2023/01/26 10:28:36;;;;;;;24.85;8.15;;;8.10;48.40;;;;;;6321065;28;20032;-69
2023/01/26 10:31:37;;;;;;;27.27;9.90;;;8.00;48.30;;;;;;6322711;28;20028;-69
2023/01/26 10:34:39;;;;;;;28.83;10.15;;;8.00;48.40;;;;;;6322525;28;20028;-69
2023/01/26 10:37:41;;;;;;;31.33;11.45;;;8.00;48.40;;;;;;6321000;28;20459;-69
2023/01/26 10:40:44;;;;;;;23.73;9.30;;;8.10;48.50;;;;;;6322135;28;20057;-70
2023/01/26 10:44:14;;;;;;;36.17;10.23;;;8.10;48.40;;;;;;6322171;28;20035;-70
2023/01/26 10:47:17;;;;;;;20.35;8.35;;;8.10;48.30;;;;;;6315838;28;20036;-69
2023/01/26 10:50:24;;;;;;;19.20;8.05;;;8.10;48.20;;;;;;6280386;28;20108;-71
2023/01/26 10:53:28;;;;;;;22.20;8.02;;;8.10;48.20;;;;;;6296603;28;20445;-69
2023/01/26 10:56:29;;;;;;;16.15;7.20;;;8.20;48.10;;;;;;6295731;28;20066;-70
2023/01/26 10:59:33;;;;;;;22.08;7.18;;;8.20;47.80;;;;;;6296404;28;20484;-70
2023/01/26 11:02:35;;;;;;;21.45;7.97;;;8.20;47.70;;;;;;6296332;28;20067;-70
2023/01/26 11:05:36;;;;;;;23.27;8.93;;;8.30;47.50;;;;;;6304661;28;20021;-69
2023/01/26 11:08:38;;;;;;;25.75;8.07;;;8.30;47.30;;;;;;6301069;28;20459;-68
2023/01/26 11:11:40;;;;;;;23.63;7.25;;;8.30;47.30;;;;;;6304805;28;20032;-70
2023/01/26 11:14:41;;;;;;;18.08;7.20;;;8.30;47.20;;;;;;6296341;28;20389;-69
2023/01/26 11:17:56;;;;;;;19.85;8.00;;;8.40;47.20;;;;;;6294746;28;20036;-71
2023/01/26 11:21:17;;;;;;;18.40;6.53;;;8.40;47.20;;;;;;6296070;28;20040;-69
2023/01/26 11:24:36;;;;;;;33.53;7.85;;;8.40;46.80;;;;;;6278397;28;20032;-71
2023/01/26 11:28:20;;;;;;;18.17;6.90;;;8.40;47.30;;;;;;6295999;28;20020;-70
2023/01/26 11:32:03;;;;;;;15.13;5.90;;;8.40;46.70;;;;;;6279558;28;20041;-69
2023/01/26 11:35:48;;;;;;;19.15;7.47;;;8.50;46.50;;;;;;6278758;28;20037;-70
2023/01/26 11:39:18;;;;;;;16.95;5.53;;;8.50;46.30;;;;;;6268177;28;20151;-68
2023/01/26 11:42:37;;;;;;;17.08;7.30;;;8.50;46.10;;;;;;6267903;28;20133;-70
2023/01/26 11:45:57;;;;;;;18.40;7.18;;;8.50;46.00;;;;;;6251717;28;20496;-72
2023/01/26 11:49:13;;;;;;;16.08;6.80;;;8.50;46.00;;;;;;6268165;28;20033;-70
2023/01/26 11:52:36;;;;;;;16.35;6.32;;;8.50;46.00;;;;;;6268516;28;20451;-70
2023/01/26 11:55:57;;;;;;;19.23;6.90;;;8.50;46.00;;;;;;6251638;28;20397;-67
2023/01/26 11:59:09;;;;;;;14.13;5.15;;;8.60;46.00;;;;;;6218691;28;20127;-70
2023/01/26 12:02:16;;;;;;;17.65;7.07;;;8.60;45.80;;;;;;6251246;28;20044;-71
2023/01/26 12:05:25;;;;;;;23.95;7.35;;;8.60;45.60;;;;;;6282398;28;20075;-70
2023/01/26 12:08:42;;;;;;;21.45;8.32;;;8.60;45.70;;;;;;6292950;28;20171;-68
2023/01/26 12:11:56;;;;;;;21.15;7.20;;;8.60;45.60;;;;;;6275917;28;20155;-69
2023/01/26 12:15:16;;;;;;;20.52;8.00;;;8.60;45.70;;;;;;6294104;28;20131;-68
2023/01/26 12:18:22;;;;;;;16.45;7.50;;;8.60;45.80;;;;;;6295633;28;20028;-67
2023/01/26 12:21:23;;;;;;;17.17;7.97;;;8.60;45.90;;;;;;6295578;28;20472;-70
2023/01/26 12:25:00;;;;;;;27.05;6.78;;;8.50;45.90;;;;;;6296208;28;20536;-69
2023/01/26 12:28:15;;;;;;;18.83;6.50;;;8.50;46.00;;;;;;6267585;28;20040;-71
2023/01/26 12:31:19;;;;;;;22.52;7.95;;;8.50;46.10;;;;;;6268029;28;20482;-68
2023/01/26 12:34:28;;;;;;;18.83;6.63;;;8.50;46.20;;;;;;6268021;28;20031;-69
2023/01/26 12:37:55;;;;;;;18.55;8.25;;;8.40;46.40;;;;;;6234067;28;20546;-69
2023/01/26 12:41:12;;;;;;;13.23;6.85;;;8.50;46.40;;;;;;6267756;28;20033;-67
2023/01/26 12:44:42;;;;;;;21.27;8.13;;;8.50;46.40;;;;;;6269433;28;20052;-69
2023/01/26 12:48:01;;;;;;;26.58;9.25;;;8.50;46.50;;;;;;6254610;28;20033;-70
2023/01/26 12:51:29;;;;;;;22.33;8.82;;;8.50;46.50;;;;;;6272155;28;20036;-69
2023/01/26 12:54:44;;;;;;;18.75;8.32;;;8.60;46.70;;;;;;6271664;28;20053;-68
2023/01/26 12:57:54;;;;;;;25.58;9.20;;;8.60;46.50;;;;;;6237862;28;20440;-69
2023/01/26 13:01:07;;;;;;;28.23;7.45;;;8.50;46.50;;;;;;6264987;28;20032;-69
2023/01/26 13:04:14;;;;;;;23.85;7.97;;;8.50;46.70;;;;;;6286111;28;20032;-69
2023/01/26 13:07:29;;;;;;;20.75;8.32;;;8.50;46.80;;;;;;6299633;28;20059;-69
2023/01/26 13:10:48;;;;;;;18.88;7.38;;;8.40;46.80;;;;;;6299210;28;20036;-68
2023/01/26 13:13:56;;;;;;;17.85;7.38;;;8.40;46.80;;;;;;6299120;28;20081;-68
2023/01/26 13:17:17;;;;;;;19.13;7.53;;;8.40;46.70;;;;;;6297917;28;20396;-70
2023/01/26 13:20:27;;;;;;;19.60;7.80;;;8.30;46.70;;;;;;6297699;28;20029;-70
2023/01/26 13:23:43;;;;;;;19.67;8.38;;;8.40;46.70;;;;;;6299069;28;20032;-69
2023/01/26 13:26:58;;;;;;;21.38;9.60;;;8.40;46.80;;;;;;6299849;28;20043;-69
2023/01/26 13:29:59;;;;;;;20.73;8.50;;;8.40;46.90;;;;;;6297425;28;20119;-70
2023/01/26 13:33:23;;;;;;;36.08;8.57;;;8.40;47.00;;;;;;6314700;28;20500;-70
2023/01/26 13:36:29;;;;;;;19.73;7.55;;;8.40;47.00;;;;;;6298646;28;20058;-69
2023/01/26 13:39:40;;;;;;;21.02;7.45;;;8.40;47.10;;;;;;6298618;28;20388;-70
2023/01/26 13:42:56;;;;;;;25.23;9.05;;;8.40;47.20;;;;;;6297732;28;20032;-69
2023/01/26 13:46:30;;;;;;;26.55;8.30;;;8.40;47.20;;;;;;6298744;28;20032;-69
2023/01/26 13:49:41;;;;;;;20.92;6.90;;;8.40;47.30;;;;;;6311820;28;20024;-71
2023/01/26 13:52:42;;;;;;;17.95;6.95;;;8.50;47.30;;;;;;6296831;28;20039;-68
2023/01/26 13:55:43;;;;;;;24.52;8.50;;;8.50;47.30;;;;;;6296709;28;20028;-68
2023/01/26 13:58:44;;;;;;;16.20;8.02;;;8.50;47.30;;;;;;6320237;28;20085;-71
2023/01/26 14:01:51;;;;;;;18.65;7.43;;;8.50;47.20;;;;;;6323087;28;20099;-70
2023/01/26 14:04:54;;;;;;;24.70;8.85;;;8.50;47.30;;;;;;6313318;28;20028;-69
2023/01/26 14:07:55;;;;;;;28.02;8.10;;;8.40;47.40;;;;;;6296202;28;20468;-69
2023/01/26 14:10:57;;;;;;;15.73;6.80;;;8.40;47.50;;;;;;6296337;28;20024;-68
2023/01/26 14:14:00;;;;;;;15.38;6.85;;;8.40;47.50;;;;;;6300007;28;20473;-68
2023/01/26 14:17:07;;;;;;;20.80;8.65;;;8.50;47.50;;;;;;6304105;28;20064;-71
2023/01/26 14:20:26;;;;;;;23.17;6.95;;;8.50;47.50;;;;;;6295893;28;20559;-69
2023/01/26 14:23:31;;;;;;;24.60;8.48;;;8.50;47.30;;;;;;6297457;28;20047;-69
2023/01/26 14:26:32;;;;;;;21.08;7.68;;;8.30;47.10;;;;;;6296259;28;20063;-69
2023/01/26 14:29:38;;;;;;;15.45;6.68;;;8.30;47.30;;;;;;6295777;28;20025;-71
2023/01/26 14:32:38;;;;;;;15.13;6.07;;;8.30;47.40;;;;;;6296038;28;20455;-71
2023/01/26 14:35:41;;;;;;;24.58;8.20;;;8.30;47.40;;;;;;6295920;28;20048;-69
2023/01/26 14:38:45;;;;;;;23.42;8.45;;;8.30;47.50;;;;;;6295751;28;20044;-68
2023/01/26 14:41:48;;;;;;;24.52;8.38;;;8.30;47.50;;;;;;6297089;28;20035;-70
2023/01/26 14:44:49;;;;;;;25.73;7.40;;;8.40;47.60;;;;;;6296727;28;20025;-69
2023/01/26 14:47:52;;;;;;;24.95;8.40;;;8.40;47.50;;;;;;6278357;28;20051;-68
2023/01/26 14:50:53;;;;;;;22.48;8.15;;;8.50;47.50;;;;;;6295449;28;20202;-69
2023/01/26 14:53:57;;;;;;;21.63;7.85;;;8.50;47.40;;;;;;6310657;28;20337;-70
2023/01/26 14:56:59;;;;;;;22.17;7.50;;;8.60;47.40;;;;;;6321802;28;20051;-70
2023/01/26 15:00:04;;;;;;;18.83;7.30;;;8.60;47.30;;;;;;6320983;28;20487;-70
2023/01/26 15:03:21;;;;;;;21.08;7.68;;;8.50;47.20;;;;;;6320639;28;20029;-69
2023/01/26 15:06:27;;;;;;;22.55;8.00;;;8.50;47.30;;;;;;6295570;28;20032;-71
2023/01/26 15:09:27;;;;;;;19.67;7.15;;;8.50;47.40;;;;;;6296323;28;20070;-69
2023/01/26 15:12:33;;;;;;;17.48;7.22;;;8.30;47.50;;;;;;6296635;28;20036;-70
2023/01/26 15:15:39;;;;;;;23.10;7.15;;;8.30;47.60;;;;;;6296738;28;20030;-71
2023/01/26 15:18:40;;;;;;;19.45;8.02;;;8.30;47.60;;;;;;6294480;28;20534;-70
2023/01/26 15:21:43;;;;;;;16.75;7.50;;;8.30;47.60;;;;;;6294437;28;20033;-71
2023/01/26 15:24:46;;;;;;;18.58;7.88;;;8.30;47.60;;;;;;6296582;28;20482;-68
2023/01/26 15:27:58;;;;;;;17.58;7.35;;;8.30;47.60;;;;;;6296123;28;20031;-70
2023/01/26 15:30:59;;;;;;;19.83;6.63;;;8.30;47.50;;;;;;6296157;28;20115;-68
2023/01/26 15:34:01;;;;;;;25.92;7.88;;;8.40;47.50;;;;;;6294745;28;20341;-72
2023/01/26 15:37:22;;;;;;;22.52;7.82;;;8.40;47.40;;;;;;6295045;28;20555;-69
2023/01/26 15:40:26;;;;;;;15.98;6.65;;;8.40;47.20;;;;;;6295882;28;20086;-69
2023/01/26 15:43:27;;;;;;;35.00;7.50;;;8.30;46.90;;;;;;6295993;28;20070;-70
2023/01/26 15:46:28;;;;;;;18.65;6.90;;;8.30;46.90;;;;;;6296096;28;20425;-68
2023/01/26 15:49:29;;;;;;;21.20;6.57;;;8.20;46.80;;;;;;6303665;28;20135;-69
2023/01/26 15:52:30;;;;;;;13.45;6.25;;;8.20;46.70;;;;;;6320866;28;20024;-67
2023/01/26 15:55:32;;;;;;;16.67;7.72;;;8.20;46.70;;;;;;6320681;28;20069;-71
2023/01/26 15:58:35;;;;;;;14.35;5.78;;;8.20;46.70;;;;;;6319108;28;20124;-70
2023/01/26 16:01:36;;;;;;;18.65;7.43;;;8.30;46.70;;;;;;6320722;28;20098;-71
2023/01/26 16:04:37;;;;;;;21.55;7.68;;;8.30;47.20;;;;;;6309033;28;20444;-71
2023/01/26 16:07:38;;;;;;;15.43;5.55;;;8.30;46.50;;;;;;6294050;28;20092;-70
2023/01/26 16:10:39;;;;;;;23.33;7.10;;;8.30;46.50;;;;;;6294579;28;20465;-72
2023/01/26 16:13:44;;;;;;;15.43;6.35;;;8.40;46.50;;;;;;6294426;28;20072;-68
2023/01/26 16:16:45;;;;;;;16.63;7.28;;;8.40;46.40;;;;;;6294312;28;20040;-69
2023/01/26 16:19:49;;;;;;;15.93;6.25;;;8.40;46.40;;;;;;6280711;28;20036;-70
2023/01/26 16:22:50;;;;;;;21.58;7.60;;;8.40;46.20;;;;;;6300244;28;20029;-69
2023/01/26 16:25:52;;;;;;;14.13;6.43;;;8.40;46.10;;;;;;6282100;28;20033;-71
2023/01/26 16:28:56;;;;;;;21.05;6.60;;;8.40;46.10;;;;;;6318690;23;20103;-69
2023/01/26 16:31:59;;;;;;;13.63;6.22;;;8.40;46.00;;;;;;6290591;28;20048;-68
2023/01/26 16:35:17;;;;;;;19.83;7.18;;;8.40;46.00;;;;;;6308984;28;20476;-69
2023/01/26 16:38:19;;;;;;;17.40;6.00;;;8.40;46.10;;;;;;6295507;28;20032;-67
2023/01/26 16:41:26;;;;;;;19.30;6.97;;;8.30;45.90;;;;;;6315820;28;20421;-68
2023/01/26 16:44:28;;;;;;;9.90;4.38;;;8.40;46.10;;;;;;6317562;28;20118;-69
2023/01/26 16:47:35;;;;;;;19.60;7.22;;;8.40;46.00;;;;;;6320945;28;20049;-68
2023/01/26 16:50:37;;;;;;;15.23;6.60;;;8.40;46.00;;;;;;6321615;28;20032;-69
2023/01/26 16:53:38;;;;;;;7.75;4.38;;;8.80;46.10;;;;;;6333171;28;20031;-72
2023/01/26 16:56:40;;;;;;;18.60;6.32;;;8.50;45.80;;;;;;6317549;28;20080;-69